sensor_id;sensor_type;location;lat;lon;timestamp;P1;durP1;ratioP1;P2;durP2;ratioP2
33714;SDS011;20043;50.998;4.754;2023-08-24T00:00:39;11.80;;;5.10;;
33714;SDS011;20043;50.998;4.754;2023-08-24T00:03:06;9.30;;;4.90;;
33714;SDS011;20043;50.998;4.754;2023-08-24T00:05:38;12.02;;;5.28;;
33714;SDS011;20043;50.998;4.754;2023-08-24T00:08:06;12.77;;;5.18;;
33714;SDS011;20043;50.998;4.754;2023-08-24T00:10:36;9.93;;;4.80;;
33714;SDS011;20043;50.998;4.754;2023-08-24T00:13:03;13.20;;;5.55;;
33714;SDS011;20043;50.998;4.754;2023-08-24T00:15:29;13.43;;;5.13;;
33714;SDS011;20043;50.998;4.754;2023-08-24T00:17:55;14.25;;;5.20;;
33714;SDS011;20043;50.998;4.754;2023-08-24T00:20:21;11.68;;;5.40;;
33714;SDS011;20043;50.998;4.754;2023-08-24T00:22:47;15.82;;;5.25;;
33714;SDS011;20043;50.998;4.754;2023-08-24T00:25:13;14.57;;;4.97;;
33714;SDS011;20043;50.998;4.754;2023-08-24T00:27:39;18.75;;;5.60;;
33714;SDS011;20043;50.998;4.754;2023-08-24T00:30:06;12.32;;;5.15;;
33714;SDS011;20043;50.998;4.754;2023-08-24T00:32:35;15.90;;;5.57;;
33714;SDS011;20043;50.998;4.754;2023-08-24T00:35:01;19.35;;;5.78;;
33714;SDS011;20043;50.998;4.754;2023-08-24T00:37:29;8.75;;;5.10;;
33714;SDS011;20043;50.998;4.754;2023-08-24T00:40:05;14.60;;;5.13;;
33714;SDS011;20043;50.998;4.754;2023-08-24T00:42:41;11.57;;;5.75;;
33714;SDS011;20043;50.998;4.754;2023-08-24T00:45:09;11.48;;;5.20;;
33714;SDS011;20043;50.998;4.754;2023-08-24T00:47:36;10.93;;;5.53;;
33714;SDS011;20043;50.998;4.754;2023-08-24T00:50:08;8.45;;;5.00;;
33714;SDS011;20043;50.998;4.754;2023-08-24T00:52:36;15.55;;;5.28;;
33714;SDS011;20043;50.998;4.754;2023-08-24T00:55:04;10.65;;;5.35;;
33714;SDS011;20043;50.998;4.754;2023-08-24T00:57:31;11.88;;;5.72;;
33714;SDS011;20043;50.998;4.754;2023-08-24T00:59:57;11.02;;;6.00;;
33714;SDS011;20043;50.998;4.754;2023-08-24T01:02:26;11.55;;;5.05;;
33714;SDS011;20043;50.998;4.754;2023-08-24T01:04:52;13.40;;;5.50;;
33714;SDS011;20043;50.998;4.754;2023-08-24T01:07:18;11.10;;;5.00;;
33714;SDS011;20043;50.998;4.754;2023-08-24T01:09:44;14.50;;;5.68;;
33714;SDS011;20043;50.998;4.754;2023-08-24T01:14:40;12.88;;;5.30;;
33714;SDS011;20043;50.998;4.754;2023-08-24T01:17:25;10.20;;;5.75;;
33714;SDS011;20043;50.998;4.754;2023-08-24T01:19:54;13.90;;;5.80;;
33714;SDS011;20043;50.998;4.754;2023-08-24T01:27:45;14.13;;;6.53;;
33714;SDS011;20043;50.998;4.754;2023-08-24T01:30:13;8.55;;;5.43;;
33714;SDS011;20043;50.998;4.754;2023-08-24T01:32:39;9.02;;;5.75;;
33714;SDS011;20043;50.998;4.754;2023-08-24T01:35:06;12.13;;;6.30;;
33714;SDS011;20043;50.998;4.754;2023-08-24T01:37:34;12.15;;;5.60;;
33714;SDS011;20043;50.998;4.754;2023-08-24T01:40:05;8.93;;;5.38;;
33714;SDS011;20043;50.998;4.754;2023-08-24T01:42:56;10.25;;;5.80;;
33714;SDS011;20043;50.998;4.754;2023-08-24T01:45:24;15.40;;;5.93;;
33714;SDS011;20043;50.998;4.754;2023-08-24T01:47:54;11.38;;;5.97;;
33714;SDS011;20043;50.998;4.754;2023-08-24T01:50:21;15.25;;;5.63;;
33714;SDS011;20043;50.998;4.754;2023-08-24T01:52:48;9.02;;;5.40;;
33714;SDS011;20043;50.998;4.754;2023-08-24T01:55:15;16.13;;;6.20;;
33714;SDS011;20043;50.998;4.754;2023-08-24T01:57:43;11.55;;;5.88;;
33714;SDS011;20043;50.998;4.754;2023-08-24T02:00:09;12.45;;;6.00;;
33714;SDS011;20043;50.998;4.754;2023-08-24T02:02:35;10.93;;;5.95;;
33714;SDS011;20043;50.998;4.754;2023-08-24T02:05:08;9.52;;;6.32;;
33714;SDS011;20043;50.998;4.754;2023-08-24T02:07:33;12.77;;;6.55;;
33714;SDS011;20043;50.998;4.754;2023-08-24T02:09:59;13.07;;;6.07;;
33714;SDS011;20043;50.998;4.754;2023-08-24T02:12:24;13.77;;;5.88;;
33714;SDS011;20043;50.998;4.754;2023-08-24T02:14:50;8.35;;;5.80;;
33714;SDS011;20043;50.998;4.754;2023-08-24T02:17:16;9.93;;;5.78;;
33714;SDS011;20043;50.998;4.754;2023-08-24T02:19:41;11.88;;;5.60;;
33714;SDS011;20043;50.998;4.754;2023-08-24T02:22:07;14.02;;;5.72;;
33714;SDS011;20043;50.998;4.754;2023-08-24T02:24:33;20.45;;;6.18;;
33714;SDS011;20043;50.998;4.754;2023-08-24T02:26:59;11.85;;;6.03;;
33714;SDS011;20043;50.998;4.754;2023-08-24T02:29:25;14.82;;;7.00;;
33714;SDS011;20043;50.998;4.754;2023-08-24T02:31:50;9.48;;;6.15;;
33714;SDS011;20043;50.998;4.754;2023-08-24T02:34:16;16.05;;;7.32;;
33714;SDS011;20043;50.998;4.754;2023-08-24T02:36:42;14.88;;;7.63;;
33714;SDS011;20043;50.998;4.754;2023-08-24T02:39:08;16.20;;;8.75;;
33714;SDS011;20043;50.998;4.754;2023-08-24T02:41:34;14.95;;;8.95;;
33714;SDS011;20043;50.998;4.754;2023-08-24T02:44:00;17.02;;;9.57;;
33714;SDS011;20043;50.998;4.754;2023-08-24T02:46:26;18.95;;;9.40;;
33714;SDS011;20043;50.998;4.754;2023-08-24T02:48:52;14.18;;;9.60;;
33714;SDS011;20043;50.998;4.754;2023-08-24T02:51:20;18.00;;;11.25;;
33714;SDS011;20043;50.998;4.754;2023-08-24T02:53:47;14.13;;;10.02;;
33714;SDS011;20043;50.998;4.754;2023-08-24T02:56:12;16.58;;;10.27;;
33714;SDS011;20043;50.998;4.754;2023-08-24T02:58:38;11.70;;;9.95;;
33714;SDS011;20043;50.998;4.754;2023-08-24T03:01:04;12.73;;;9.60;;
33714;SDS011;20043;50.998;4.754;2023-08-24T03:03:32;14.32;;;9.68;;
33714;SDS011;20043;50.998;4.754;2023-08-24T03:06:05;15.85;;;9.70;;
33714;SDS011;20043;50.998;4.754;2023-08-24T03:08:32;15.60;;;10.25;;
33714;SDS011;20043;50.998;4.754;2023-08-24T03:10:59;13.85;;;9.18;;
33714;SDS011;20043;50.998;4.754;2023-08-24T03:13:26;19.80;;;9.75;;
33714;SDS011;20043;50.998;4.754;2023-08-24T03:15:52;13.93;;;9.23;;
33714;SDS011;20043;50.998;4.754;2023-08-24T03:18:18;13.63;;;9.45;;
33714;SDS011;20043;50.998;4.754;2023-08-24T03:20:45;14.65;;;8.82;;
33714;SDS011;20043;50.998;4.754;2023-08-24T03:23:12;15.55;;;9.48;;
33714;SDS011;20043;50.998;4.754;2023-08-24T03:25:39;12.57;;;10.07;;
33714;SDS011;20043;50.998;4.754;2023-08-24T03:28:06;14.85;;;9.60;;
33714;SDS011;20043;50.998;4.754;2023-08-24T03:30:36;16.33;;;10.25;;
33714;SDS011;20043;50.998;4.754;2023-08-24T03:33:03;13.32;;;9.82;;
33714;SDS011;20043;50.998;4.754;2023-08-24T03:35:32;18.77;;;10.18;;
33714;SDS011;20043;50.998;4.754;2023-08-24T03:37:58;13.43;;;9.93;;
33714;SDS011;20043;50.998;4.754;2023-08-24T03:40:24;15.18;;;10.13;;
33714;SDS011;20043;50.998;4.754;2023-08-24T03:42:50;15.52;;;9.93;;
33714;SDS011;20043;50.998;4.754;2023-08-24T03:45:16;17.35;;;10.02;;
33714;SDS011;20043;50.998;4.754;2023-08-24T03:47:42;14.50;;;9.85;;
33714;SDS011;20043;50.998;4.754;2023-08-24T03:50:07;14.52;;;10.60;;
33714;SDS011;20043;50.998;4.754;2023-08-24T03:52:33;14.63;;;10.45;;
33714;SDS011;20043;50.998;4.754;2023-08-24T03:54:59;14.27;;;10.35;;
33714;SDS011;20043;50.998;4.754;2023-08-24T03:57:24;16.10;;;11.35;;
33714;SDS011;20043;50.998;4.754;2023-08-24T03:59:50;15.57;;;11.00;;
33714;SDS011;20043;50.998;4.754;2023-08-24T04:02:16;15.65;;;10.77;;
33714;SDS011;20043;50.998;4.754;2023-08-24T04:04:41;24.38;;;11.63;;
33714;SDS011;20043;50.998;4.754;2023-08-24T04:07:07;16.08;;;11.23;;
33714;SDS011;20043;50.998;4.754;2023-08-24T04:09:32;15.95;;;10.68;;
33714;SDS011;20043;50.998;4.754;2023-08-24T04:11:58;17.23;;;10.70;;
33714;SDS011;20043;50.998;4.754;2023-08-24T04:14:24;16.30;;;11.45;;
33714;SDS011;20043;50.998;4.754;2023-08-24T04:16:49;20.48;;;11.75;;
33714;SDS011;20043;50.998;4.754;2023-08-24T04:19:15;20.65;;;10.90;;
33714;SDS011;20043;50.998;4.754;2023-08-24T04:21:40;22.58;;;12.27;;
33714;SDS011;20043;50.998;4.754;2023-08-24T04:24:06;16.80;;;12.35;;
33714;SDS011;20043;50.998;4.754;2023-08-24T04:26:32;17.23;;;11.98;;
33714;SDS011;20043;50.998;4.754;2023-08-24T04:28:57;19.02;;;12.20;;
33714;SDS011;20043;50.998;4.754;2023-08-24T04:31:23;18.60;;;11.35;;
33714;SDS011;20043;50.998;4.754;2023-08-24T04:33:49;20.70;;;12.27;;
33714;SDS011;20043;50.998;4.754;2023-08-24T04:36:14;20.70;;;12.02;;
33714;SDS011;20043;50.998;4.754;2023-08-24T04:38:40;17.02;;;11.35;;
33714;SDS011;20043;50.998;4.754;2023-08-24T04:41:07;17.38;;;11.27;;
33714;SDS011;20043;50.998;4.754;2023-08-24T04:43:33;20.67;;;11.43;;
33714;SDS011;20043;50.998;4.754;2023-08-24T04:45:59;18.92;;;11.85;;
33714;SDS011;20043;50.998;4.754;2023-08-24T04:48:25;15.27;;;11.68;;
33714;SDS011;20043;50.998;4.754;2023-08-24T04:50:51;22.77;;;11.57;;
33714;SDS011;20043;50.998;4.754;2023-08-24T04:53:18;18.10;;;12.18;;
33714;SDS011;20043;50.998;4.754;2023-08-24T04:55:45;19.00;;;11.45;;
33714;SDS011;20043;50.998;4.754;2023-08-24T04:58:11;19.48;;;11.68;;
33714;SDS011;20043;50.998;4.754;2023-08-24T05:00:41;16.73;;;10.98;;
33714;SDS011;20043;50.998;4.754;2023-08-24T05:03:06;15.93;;;11.50;;
33714;SDS011;20043;50.998;4.754;2023-08-24T05:05:33;18.70;;;11.20;;
33714;SDS011;20043;50.998;4.754;2023-08-24T05:07:59;21.17;;;11.73;;
33714;SDS011;20043;50.998;4.754;2023-08-24T05:10:29;19.75;;;10.70;;
33714;SDS011;20043;50.998;4.754;2023-08-24T05:12:55;22.23;;;11.00;;
33714;SDS011;20043;50.998;4.754;2023-08-24T05:15:21;15.60;;;10.73;;
33714;SDS011;20043;50.998;4.754;2023-08-24T05:17:47;21.08;;;10.10;;
33714;SDS011;20043;50.998;4.754;2023-08-24T05:20:13;17.77;;;9.45;;
33714;SDS011;20043;50.998;4.754;2023-08-24T05:22:38;17.40;;;9.65;;
33714;SDS011;20043;50.998;4.754;2023-08-24T05:25:05;17.42;;;9.23;;
33714;SDS011;20043;50.998;4.754;2023-08-24T05:27:31;16.23;;;8.93;;
33714;SDS011;20043;50.998;4.754;2023-08-24T05:29:56;14.30;;;7.88;;
33714;SDS011;20043;50.998;4.754;2023-08-24T05:32:22;15.65;;;7.95;;
33714;SDS011;20043;50.998;4.754;2023-08-24T05:34:48;13.93;;;8.13;;
33714;SDS011;20043;50.998;4.754;2023-08-24T05:37:14;14.10;;;7.28;;
33714;SDS011;20043;50.998;4.754;2023-08-24T05:39:39;13.38;;;7.10;;
33714;SDS011;20043;50.998;4.754;2023-08-24T05:42:05;9.45;;;6.70;;
33714;SDS011;20043;50.998;4.754;2023-08-24T05:44:31;11.43;;;6.97;;
33714;SDS011;20043;50.998;4.754;2023-08-24T05:46:57;11.55;;;6.68;;
33714;SDS011;20043;50.998;4.754;2023-08-24T05:49:23;12.85;;;7.20;;
33714;SDS011;20043;50.998;4.754;2023-08-24T05:51:50;12.38;;;6.30;;
33714;SDS011;20043;50.998;4.754;2023-08-24T05:54:17;9.70;;;6.38;;
33714;SDS011;20043;50.998;4.754;2023-08-24T05:56:43;11.02;;;6.47;;
33714;SDS011;20043;50.998;4.754;2023-08-24T05:59:09;13.38;;;6.50;;
33714;SDS011;20043;50.998;4.754;2023-08-24T06:01:35;12.05;;;6.97;;
33714;SDS011;20043;50.998;4.754;2023-08-24T06:04:04;15.75;;;6.82;;
33714;SDS011;20043;50.998;4.754;2023-08-24T06:06:35;13.25;;;6.80;;
33714;SDS011;20043;50.998;4.754;2023-08-24T06:09:02;14.25;;;6.45;;
33714;SDS011;20043;50.998;4.754;2023-08-24T06:11:30;13.45;;;6.30;;
33714;SDS011;20043;50.998;4.754;2023-08-24T06:13:57;12.43;;;6.57;;
33714;SDS011;20043;50.998;4.754;2023-08-24T06:16:22;15.77;;;6.70;;
33714;SDS011;20043;50.998;4.754;2023-08-24T06:18:48;12.57;;;6.38;;
33714;SDS011;20043;50.998;4.754;2023-08-24T06:21:15;9.65;;;6.40;;
33714;SDS011;20043;50.998;4.754;2023-08-24T06:23:41;12.35;;;6.80;;
33714;SDS011;20043;50.998;4.754;2023-08-24T06:26:06;9.00;;;5.97;;
33714;SDS011;20043;50.998;4.754;2023-08-24T06:28:32;13.10;;;6.70;;
33714;SDS011;20043;50.998;4.754;2023-08-24T06:30:59;19.92;;;7.60;;
33714;SDS011;20043;50.998;4.754;2023-08-24T06:33:28;22.92;;;7.68;;
33714;SDS011;20043;50.998;4.754;2023-08-24T06:35:58;21.05;;;6.80;;
33714;SDS011;20043;50.998;4.754;2023-08-24T06:38:23;12.45;;;7.10;;
33714;SDS011;20043;50.998;4.754;2023-08-24T06:40:50;15.25;;;6.75;;
33714;SDS011;20043;50.998;4.754;2023-08-24T06:43:15;10.82;;;6.18;;
33714;SDS011;20043;50.998;4.754;2023-08-24T06:45:41;12.10;;;6.55;;
33714;SDS011;20043;50.998;4.754;2023-08-24T06:48:06;13.43;;;7.28;;
33714;SDS011;20043;50.998;4.754;2023-08-24T06:50:35;11.52;;;6.53;;
33714;SDS011;20043;50.998;4.754;2023-08-24T06:53:02;12.20;;;6.97;;
33714;SDS011;20043;50.998;4.754;2023-08-24T06:55:28;13.73;;;7.22;;
33714;SDS011;20043;50.998;4.754;2023-08-24T06:57:54;16.13;;;6.65;;
33714;SDS011;20043;50.998;4.754;2023-08-24T07:00:20;11.50;;;6.75;;
33714;SDS011;20043;50.998;4.754;2023-08-24T07:02:47;11.00;;;6.85;;
33714;SDS011;20043;50.998;4.754;2023-08-24T07:05:13;14.43;;;6.53;;
33714;SDS011;20043;50.998;4.754;2023-08-24T07:07:39;12.90;;;6.55;;
33714;SDS011;20043;50.998;4.754;2023-08-24T07:10:08;12.80;;;6.80;;
33714;SDS011;20043;50.998;4.754;2023-08-24T07:12:34;10.57;;;6.90;;
33714;SDS011;20043;50.998;4.754;2023-08-24T07:15:00;10.65;;;6.43;;
33714;SDS011;20043;50.998;4.754;2023-08-24T07:17:25;16.25;;;7.32;;
33714;SDS011;20043;50.998;4.754;2023-08-24T07:19:51;16.15;;;6.78;;
33714;SDS011;20043;50.998;4.754;2023-08-24T07:22:17;12.77;;;6.90;;
33714;SDS011;20043;50.998;4.754;2023-08-24T07:24:43;13.32;;;7.30;;
33714;SDS011;20043;50.998;4.754;2023-08-24T07:27:08;13.05;;;6.70;;
33714;SDS011;20043;50.998;4.754;2023-08-24T07:29:34;13.52;;;7.03;;
33714;SDS011;20043;50.998;4.754;2023-08-24T07:32:00;11.15;;;6.32;;
33714;SDS011;20043;50.998;4.754;2023-08-24T07:34:26;14.38;;;7.22;;
33714;SDS011;20043;50.998;4.754;2023-08-24T07:36:53;14.57;;;6.75;;
33714;SDS011;20043;50.998;4.754;2023-08-24T07:39:19;12.57;;;6.10;;
33714;SDS011;20043;50.998;4.754;2023-08-24T07:41:45;13.88;;;6.53;;
33714;SDS011;20043;50.998;4.754;2023-08-24T07:44:11;14.20;;;6.13;;
33714;SDS011;20043;50.998;4.754;2023-08-24T07:46:38;10.20;;;6.68;;
33714;SDS011;20043;50.998;4.754;2023-08-24T07:49:05;11.82;;;6.43;;
33714;SDS011;20043;50.998;4.754;2023-08-24T07:51:30;14.25;;;6.25;;
33714;SDS011;20043;50.998;4.754;2023-08-24T07:53:57;11.35;;;6.38;;
33714;SDS011;20043;50.998;4.754;2023-08-24T07:56:23;11.60;;;6.63;;
33714;SDS011;20043;50.998;4.754;2023-08-24T07:58:49;14.38;;;6.53;;
33714;SDS011;20043;50.998;4.754;2023-08-24T08:01:14;13.38;;;6.43;;
33714;SDS011;20043;50.998;4.754;2023-08-24T08:03:40;9.20;;;5.75;;
33714;SDS011;20043;50.998;4.754;2023-08-24T08:06:05;14.60;;;6.22;;
33714;SDS011;20043;50.998;4.754;2023-08-24T08:08:31;11.77;;;5.82;;
33714;SDS011;20043;50.998;4.754;2023-08-24T08:10:58;13.38;;;6.00;;
33714;SDS011;20043;50.998;4.754;2023-08-24T08:13:28;13.98;;;6.15;;
33714;SDS011;20043;50.998;4.754;2023-08-24T08:15:59;11.65;;;5.97;;
33714;SDS011;20043;50.998;4.754;2023-08-24T08:18:28;14.13;;;5.93;;
33714;SDS011;20043;50.998;4.754;2023-08-24T08:20:54;10.18;;;6.03;;
33714;SDS011;20043;50.998;4.754;2023-08-24T08:23:19;11.45;;;6.35;;
33714;SDS011;20043;50.998;4.754;2023-08-24T08:25:45;14.40;;;6.20;;
33714;SDS011;20043;50.998;4.754;2023-08-24T08:28:11;16.05;;;6.13;;
33714;SDS011;20043;50.998;4.754;2023-08-24T08:30:36;12.15;;;5.43;;
33714;SDS011;20043;50.998;4.754;2023-08-24T08:33:02;11.23;;;5.55;;
33714;SDS011;20043;50.998;4.754;2023-08-24T08:35:28;13.05;;;5.47;;
33714;SDS011;20043;50.998;4.754;2023-08-24T08:37:53;13.93;;;5.55;;
33714;SDS011;20043;50.998;4.754;2023-08-24T08:40:19;22.92;;;5.53;;
33714;SDS011;20043;50.998;4.754;2023-08-24T08:42:45;14.38;;;6.00;;
33714;SDS011;20043;50.998;4.754;2023-08-24T08:45:11;11.40;;;5.90;;
33714;SDS011;20043;50.998;4.754;2023-08-24T08:47:37;12.95;;;5.93;;
33714;SDS011;20043;50.998;4.754;2023-08-24T08:50:03;14.98;;;5.10;;
33714;SDS011;20043;50.998;4.754;2023-08-24T08:52:30;13.27;;;5.30;;
33714;SDS011;20043;50.998;4.754;2023-08-24T08:54:57;13.05;;;5.82;;
33714;SDS011;20043;50.998;4.754;2023-08-24T08:57:23;11.77;;;5.80;;
33714;SDS011;20043;50.998;4.754;2023-08-24T08:59:51;16.00;;;5.88;;
33714;SDS011;20043;50.998;4.754;2023-08-24T09:02:18;11.95;;;5.35;;
33714;SDS011;20043;50.998;4.754;2023-08-24T09:04:45;11.88;;;5.25;;
33714;SDS011;20043;50.998;4.754;2023-08-24T09:07:15;14.75;;;5.07;;
33714;SDS011;20043;50.998;4.754;2023-08-24T09:09:41;10.77;;;4.93;;
33714;SDS011;20043;50.998;4.754;2023-08-24T09:12:08;8.32;;;4.95;;
33714;SDS011;20043;50.998;4.754;2023-08-24T09:14:34;13.85;;;4.80;;
33714;SDS011;20043;50.998;4.754;2023-08-24T09:17:00;13.25;;;4.88;;
33714;SDS011;20043;50.998;4.754;2023-08-24T09:19:29;9.48;;;4.65;;
33714;SDS011;20043;50.998;4.754;2023-08-24T09:21:56;9.40;;;4.07;;
33714;SDS011;20043;50.998;4.754;2023-08-24T09:24:32;11.20;;;4.80;;
33714;SDS011;20043;50.998;4.754;2023-08-24T09:26:59;12.50;;;4.80;;
33714;SDS011;20043;50.998;4.754;2023-08-24T09:29:25;9.85;;;4.72;;
33714;SDS011;20043;50.998;4.754;2023-08-24T09:31:51;11.82;;;4.78;;
33714;SDS011;20043;50.998;4.754;2023-08-24T09:34:20;7.88;;;4.47;;
33714;SDS011;20043;50.998;4.754;2023-08-24T09:36:46;9.15;;;4.50;;
33714;SDS011;20043;50.998;4.754;2023-08-24T09:39:12;10.25;;;4.60;;
33714;SDS011;20043;50.998;4.754;2023-08-24T09:41:43;15.70;;;5.03;;
33714;SDS011;20043;50.998;4.754;2023-08-24T09:44:09;10.35;;;4.90;;
33714;SDS011;20043;50.998;4.754;2023-08-24T09:46:37;10.05;;;5.20;;
33714;SDS011;20043;50.998;4.754;2023-08-24T09:49:06;9.73;;;4.97;;
33714;SDS011;20043;50.998;4.754;2023-08-24T09:51:33;10.25;;;5.32;;
33714;SDS011;20043;50.998;4.754;2023-08-24T09:53:59;11.85;;;5.22;;
33714;SDS011;20043;50.998;4.754;2023-08-24T09:56:31;11.48;;;5.38;;
33714;SDS011;20043;50.998;4.754;2023-08-24T09:59:13;12.77;;;5.75;;
33714;SDS011;20043;50.998;4.754;2023-08-24T10:01:43;11.45;;;5.72;;
33714;SDS011;20043;50.998;4.754;2023-08-24T10:04:12;11.90;;;6.75;;
33714;SDS011;20043;50.998;4.754;2023-08-24T10:06:39;18.10;;;6.75;;
33714;SDS011;20043;50.998;4.754;2023-08-24T10:09:10;10.75;;;6.35;;
33714;SDS011;20043;50.998;4.754;2023-08-24T10:11:43;17.85;;;6.63;;
33714;SDS011;20043;50.998;4.754;2023-08-24T10:14:24;11.00;;;6.40;;
33714;SDS011;20043;50.998;4.754;2023-08-24T10:16:51;12.85;;;5.78;;
33714;SDS011;20043;50.998;4.754;2023-08-24T10:19:18;11.10;;;6.05;;
33714;SDS011;20043;50.998;4.754;2023-08-24T10:21:46;12.32;;;6.00;;
33714;SDS011;20043;50.998;4.754;2023-08-24T10:24:12;11.35;;;5.55;;
33714;SDS011;20043;50.998;4.754;2023-08-24T10:26:39;15.52;;;6.25;;
33714;SDS011;20043;50.998;4.754;2023-08-24T10:29:06;15.75;;;6.43;;
33714;SDS011;20043;50.998;4.754;2023-08-24T10:31:32;13.75;;;6.53;;
33714;SDS011;20043;50.998;4.754;2023-08-24T10:33:59;19.98;;;6.82;;
33714;SDS011;20043;50.998;4.754;2023-08-24T10:36:26;18.33;;;6.35;;
33714;SDS011;20043;50.998;4.754;2023-08-24T10:38:55;18.10;;;6.68;;
33714;SDS011;20043;50.998;4.754;2023-08-24T10:41:27;9.10;;;5.72;;
33714;SDS011;20043;50.998;4.754;2023-08-24T10:43:53;12.95;;;6.50;;
33714;SDS011;20043;50.998;4.754;2023-08-24T10:46:30;14.07;;;6.15;;
33714;SDS011;20043;50.998;4.754;2023-08-24T10:49:00;13.23;;;5.78;;
33714;SDS011;20043;50.998;4.754;2023-08-24T10:51:28;10.48;;;5.35;;
33714;SDS011;20043;50.998;4.754;2023-08-24T10:53:59;11.32;;;5.80;;
33714;SDS011;20043;50.998;4.754;2023-08-24T10:56:38;12.45;;;5.88;;
33714;SDS011;20043;50.998;4.754;2023-08-24T11:01:40;13.55;;;6.32;;
33714;SDS011;20043;50.998;4.754;2023-08-24T11:04:07;11.50;;;5.63;;
33714;SDS011;20043;50.998;4.754;2023-08-24T11:06:50;13.02;;;6.63;;
33714;SDS011;20043;50.998;4.754;2023-08-24T11:09:44;12.50;;;6.18;;
33714;SDS011;20043;50.998;4.754;2023-08-24T11:12:14;12.82;;;6.35;;
33714;SDS011;20043;50.998;4.754;2023-08-24T11:14:52;9.57;;;5.57;;
33714;SDS011;20043;50.998;4.754;2023-08-24T11:17:23;13.75;;;5.50;;
33714;SDS011;20043;50.998;4.754;2023-08-24T11:19:50;10.55;;;5.30;;
33714;SDS011;20043;50.998;4.754;2023-08-24T11:22:24;12.35;;;5.22;;
33714;SDS011;20043;50.998;4.754;2023-08-24T11:24:50;9.13;;;4.47;;
33714;SDS011;20043;50.998;4.754;2023-08-24T11:27:16;12.10;;;5.28;;
33714;SDS011;20043;50.998;4.754;2023-08-24T11:29:42;12.13;;;4.82;;
33714;SDS011;20043;50.998;4.754;2023-08-24T11:32:08;13.27;;;4.78;;
33714;SDS011;20043;50.998;4.754;2023-08-24T11:34:33;13.77;;;4.88;;
33714;SDS011;20043;50.998;4.754;2023-08-24T11:37:00;12.48;;;4.40;;
33714;SDS011;20043;50.998;4.754;2023-08-24T11:39:26;9.70;;;5.00;;
33714;SDS011;20043;50.998;4.754;2023-08-24T11:44:22;10.27;;;4.72;;
33714;SDS011;20043;50.998;4.754;2023-08-24T11:46:48;8.10;;;4.78;;
33714;SDS011;20043;50.998;4.754;2023-08-24T11:49:14;8.68;;;4.68;;
33714;SDS011;20043;50.998;4.754;2023-08-24T11:51:39;12.77;;;6.50;;
33714;SDS011;20043;50.998;4.754;2023-08-24T11:54:05;13.20;;;7.93;;
33714;SDS011;20043;50.998;4.754;2023-08-24T11:56:31;62.13;;;7.75;;
33714;SDS011;20043;50.998;4.754;2023-08-24T11:58:57;125.72;;;10.23;;
33714;SDS011;20043;50.998;4.754;2023-08-24T12:01:22;10.38;;;4.78;;
33714;SDS011;20043;50.998;4.754;2023-08-24T12:03:49;10.35;;;4.40;;
33714;SDS011;20043;50.998;4.754;2023-08-24T12:06:16;9.38;;;4.35;;
33714;SDS011;20043;50.998;4.754;2023-08-24T12:08:43;15.27;;;5.05;;
33714;SDS011;20043;50.998;4.754;2023-08-24T12:11:13;7.95;;;4.43;;
33714;SDS011;20043;50.998;4.754;2023-08-24T12:13:44;7.28;;;4.40;;
33714;SDS011;20043;50.998;4.754;2023-08-24T12:16:11;10.40;;;4.53;;
33714;SDS011;20043;50.998;4.754;2023-08-24T12:18:51;9.35;;;4.25;;
33714;SDS011;20043;50.998;4.754;2023-08-24T12:21:18;6.50;;;3.88;;
33714;SDS011;20043;50.998;4.754;2023-08-24T12:23:45;7.95;;;4.13;;
33714;SDS011;20043;50.998;4.754;2023-08-24T12:26:28;7.78;;;4.00;;
33714;SDS011;20043;50.998;4.754;2023-08-24T12:28:55;9.13;;;4.43;;
33714;SDS011;20043;50.998;4.754;2023-08-24T12:31:26;9.55;;;4.72;;
33714;SDS011;20043;50.998;4.754;2023-08-24T12:34:06;8.43;;;4.45;;
33714;SDS011;20043;50.998;4.754;2023-08-24T12:36:36;7.82;;;4.57;;
33714;SDS011;20043;50.998;4.754;2023-08-24T12:39:03;12.40;;;5.75;;
33714;SDS011;20043;50.998;4.754;2023-08-24T12:41:30;17.48;;;6.88;;
33714;SDS011;20043;50.998;4.754;2023-08-24T12:43:55;19.98;;;7.70;;
33714;SDS011;20043;50.998;4.754;2023-08-24T12:46:21;12.50;;;6.13;;
33714;SDS011;20043;50.998;4.754;2023-08-24T12:48:48;12.27;;;5.78;;
33714;SDS011;20043;50.998;4.754;2023-08-24T12:51:15;10.45;;;5.13;;
33714;SDS011;20043;50.998;4.754;2023-08-24T12:53:41;12.88;;;5.07;;
33714;SDS011;20043;50.998;4.754;2023-08-24T12:56:06;14.25;;;6.03;;
33714;SDS011;20043;50.998;4.754;2023-08-24T12:58:32;12.10;;;5.47;;
33714;SDS011;20043;50.998;4.754;2023-08-24T13:00:58;11.48;;;5.30;;
33714;SDS011;20043;50.998;4.754;2023-08-24T13:03:24;12.85;;;5.07;;
33714;SDS011;20043;50.998;4.754;2023-08-24T13:05:50;9.25;;;4.90;;
33714;SDS011;20043;50.998;4.754;2023-08-24T13:08:16;8.65;;;4.55;;
33714;SDS011;20043;50.998;4.754;2023-08-24T13:10:41;8.02;;;4.35;;
33714;SDS011;20043;50.998;4.754;2023-08-24T13:13:07;7.47;;;3.58;;
33714;SDS011;20043;50.998;4.754;2023-08-24T13:15:33;7.50;;;3.78;;
33714;SDS011;20043;50.998;4.754;2023-08-24T13:17:59;9.35;;;4.38;;
33714;SDS011;20043;50.998;4.754;2023-08-24T13:20:24;5.28;;;3.40;;
33714;SDS011;20043;50.998;4.754;2023-08-24T13:22:53;7.22;;;3.88;;
33714;SDS011;20043;50.998;4.754;2023-08-24T13:25:18;5.65;;;3.20;;
33714;SDS011;20043;50.998;4.754;2023-08-24T13:27:44;4.88;;;3.20;;
33714;SDS011;20043;50.998;4.754;2023-08-24T13:30:10;7.40;;;3.10;;
33714;SDS011;20043;50.998;4.754;2023-08-24T13:32:36;6.85;;;3.28;;
33714;SDS011;20043;50.998;4.754;2023-08-24T13:35:02;10.32;;;3.00;;
33714;SDS011;20043;50.998;4.754;2023-08-24T13:37:28;7.65;;;2.97;;
33714;SDS011;20043;50.998;4.754;2023-08-24T13:39:54;7.50;;;3.25;;
33714;SDS011;20043;50.998;4.754;2023-08-24T13:42:19;6.30;;;2.80;;
33714;SDS011;20043;50.998;4.754;2023-08-24T13:44:45;10.05;;;3.03;;
33714;SDS011;20043;50.998;4.754;2023-08-24T13:47:12;6.40;;;2.65;;
33714;SDS011;20043;50.998;4.754;2023-08-24T13:49:37;6.20;;;2.72;;
33714;SDS011;20043;50.998;4.754;2023-08-24T13:52:03;5.32;;;2.55;;
33714;SDS011;20043;50.998;4.754;2023-08-24T13:54:29;6.22;;;3.03;;
33714;SDS011;20043;50.998;4.754;2023-08-24T13:56:55;5.70;;;2.45;;
33714;SDS011;20043;50.998;4.754;2023-08-24T13:59:21;10.10;;;2.42;;
33714;SDS011;20043;50.998;4.754;2023-08-24T14:01:47;6.75;;;2.33;;
33714;SDS011;20043;50.998;4.754;2023-08-24T14:04:13;8.30;;;2.65;;
33714;SDS011;20043;50.998;4.754;2023-08-24T14:06:38;5.47;;;2.72;;
33714;SDS011;20043;50.998;4.754;2023-08-24T14:09:04;11.73;;;2.60;;
33714;SDS011;20043;50.998;4.754;2023-08-24T14:11:31;12.02;;;2.67;;
33714;SDS011;20043;50.998;4.754;2023-08-24T14:13:57;6.50;;;2.40;;
33714;SDS011;20043;50.998;4.754;2023-08-24T14:16:24;6.25;;;2.50;;
33714;SDS011;20043;50.998;4.754;2023-08-24T14:18:50;7.97;;;2.20;;
33714;SDS011;20043;50.998;4.754;2023-08-24T14:21:17;6.07;;;2.17;;
33714;SDS011;20043;50.998;4.754;2023-08-24T14:23:42;7.03;;;2.05;;
33714;SDS011;20043;50.998;4.754;2023-08-24T14:26:08;6.45;;;2.15;;
33714;SDS011;20043;50.998;4.754;2023-08-24T14:29:08;4.97;;;1.80;;
33714;SDS011;20043;50.998;4.754;2023-08-24T14:31:27;7.47;;;1.83;;
33714;SDS011;20043;50.998;4.754;2023-08-24T14:33:54;4.97;;;1.90;;
33714;SDS011;20043;50.998;4.754;2023-08-24T14:36:20;4.22;;;1.95;;
33714;SDS011;20043;50.998;4.754;2023-08-24T14:38:47;8.63;;;2.30;;
33714;SDS011;20043;50.998;4.754;2023-08-24T14:41:13;6.63;;;2.05;;
33714;SDS011;20043;50.998;4.754;2023-08-24T14:43:39;4.95;;;2.38;;
33714;SDS011;20043;50.998;4.754;2023-08-24T14:46:05;6.90;;;1.98;;
33714;SDS011;20043;50.998;4.754;2023-08-24T14:48:31;5.93;;;2.15;;